• Join FlightAware (Why Join?)
  • Login
  • US Flag 
04:03AM EDT


 

Airport Tracker/Info


-or-


 

Live Flight TrackerFlight Track Log ✈ N2UV ✈ 18-Aug-2013 ✈ KFHB - KFXE

Flight Track Log - Related Links

Times and Time Zones

All times are in EDT time to prevent confusion due to time zone crossing. See the N2UV flight status page for this flight to view local times or setup timezone preferences in your user account.

Time Position Orientation Groundspeed Altitude Reporting Facility
EDT Latitude Longitude Course Direction KTS MPH feet Rate Location/Type
06:33PM 30.1881 -81.3353 172° South 161 185 9,000  Level Jacksonville Center
06:34PM 30.1483 -81.3289 172° South 156 180 9,900 900 Climbing Jacksonville Center
06:35PM 30.1106 -81.3128 160° South 151 174 10,800 900 Climbing Jacksonville Center
06:36PM 30.0808 -81.2794 136° Southeast 145 167 11,700 840 Climbing Jacksonville Center
06:37PM 30.0492 -81.2464 138° Southeast 145 167 12,500 840 Climbing Jacksonville Center
06:38PM 30.0197 -81.2181 140° Southeast 145 167 13,400 780 Climbing Jacksonville Center
06:39PM 29.9878 -81.1850 138° Southeast 145 167 14,100 720 Climbing Jacksonville Center
06:40PM 29.9583 -81.1544 138° Southeast 150 173 14,900 720 Climbing Jacksonville Center
06:41PM 29.9244 -81.1286 147° Southeast 150 173 15,600 600 Climbing Jacksonville Center
06:42PM 29.8844 -81.1128 161° South 150 173 16,200 600 Climbing Jacksonville Center
06:43PM 29.8467 -81.0989 162° South 145 167 16,800 600 Climbing Jacksonville Center
06:44PM 29.8089 -81.0806 157° South 145 167 17,400 540 Climbing Jacksonville Center
06:45PM 29.7692 -81.0644 161° South 150 173 17,900 300 Climbing Jacksonville Center
06:46PM 29.7231 -81.0511 166° South 155 178 18,100  Climbing Jacksonville Center
06:47PM 29.6767 -81.0303 159° South 170 196 18,000 -60 Descending Jacksonville Center
06:48PM 29.6283 -81.0050 156° South 181 208 18,000  Level Jacksonville Center
06:49PM 29.5739 -80.9894 166° South 194 223 18,000  Level Jacksonville Center
06:50PM 29.5233 -80.9667 159° South 194 223 18,000  Level Jacksonville Center
06:51PM 29.4731 -80.9436 158° South 194 223 18,000  Level Jacksonville Center
06:52PM 29.4203 -80.9208 159° South 194 223 18,000  Level Jacksonville Center
06:53PM 29.3719 -80.8956 155° Southeast 194 223 18,000  Level Jacksonville Center
06:54PM 29.3217 -80.8775 163° South 194 223 18,100  Climbing Jacksonville Center
06:55PM 29.2692 -80.8597 164° South 188 216 18,100  Level Jacksonville Center
06:56PM 29.2425 -80.8492 161° South 191 220 18,100  Level Miami Center
06:57PM 29.1908 -80.8308 163° South 191 220 18,100  Level Miami Center
06:58PM 29.1394 -80.8050 156° South 191 220 18,100  Level Miami Center
06:59PM 29.0856 -80.7842 161° South 197 227 18,100  Level Miami Center
07:00PM 29.0361 -80.7636 160° South 202 232 18,100  Level Miami Center
07:01PM 28.9847 -80.7381 156° South 202 232 18,100  Level Miami Center
07:02PM 28.9331 -80.7172 161° South 207 238 18,100  Level Miami Center
07:03PM 28.8858 -80.6917 155° Southeast 194 223 18,100  Level Miami Center
07:04PM 28.8386 -80.6594 149° Southeast 189 217 18,100  Level Miami Center
07:05PM 28.7917 -80.6294 151° Southeast 197 227 18,100  Level Miami Center
07:06PM 28.7461 -80.6089 158° South 192 221 18,100 -300 Level Miami Center
07:07PM 28.6908 -80.5761 153° Southeast 197 227 17,500 -600 Descending Miami Center
07:08PM 28.6375 -80.5414 150° Southeast 207 238 17,000 -600 Descending Miami Center
07:09PM 28.5819 -80.5089 153° Southeast 217 250 16,400 -600 Descending Miami Center
07:10PM 28.5242 -80.4761 154° Southeast 217 250 15,800 -600 Descending Miami Center
07:11PM 28.4708 -80.4461 154° Southeast 217 250 15,300 -420 Descending Miami Center
07:12PM 28.4172 -80.4136 152° Southeast 217 250 15,000 -180 Descending Miami Center
07:13PM 28.3614 -80.3978 166° South 212 244 15,000  Level Miami Center
07:14PM 28.3033 -80.3867 170° South 207 238 15,000  Level Miami Center
07:15PM 28.2494 -80.3708 165° South 202 232 15,000  Level Miami Center
07:16PM 28.1956 -80.3550 165° South 202 232 15,000  Level Miami Center
07:17PM 28.1417 -80.3367 163° South 202 232 15,000  Level Miami Center
07:18PM 28.0989 -80.2978 141° Southeast 197 227 15,100  Climbing Miami Center
07:19PM 28.0494 -80.2703 154° Southeast 197 227 15,100  Level Miami Center
07:20PM 27.9933 -80.2569 168° South 202 232 15,100  Level Miami Center
07:21PM 27.9394 -80.2389 164° South 202 232 15,100 -60 Level Miami Center
07:22PM 27.8836 -80.2208 164° South 202 232 15,000 -60 Descending Miami Center
07:23PM 27.8317 -80.2075 167° South 202 232 15,000  Level Miami Center
07:24PM 27.7756 -80.1919 166° South 202 232 15,100  Climbing Miami Center
07:25PM 27.7239 -80.1717 161° South 202 232 15,100  Level Miami Center
07:26PM 27.6742 -80.1583 167° South 202 232 15,100  Level Miami Center
07:27PM 27.6161 -80.1381 163° South 202 232 15,100 -60 Level Miami Center
07:28PM 27.5600 -80.1247 168° South 202 232 15,000 -300 Descending Miami Center
07:29PM 27.5019 -80.1067 165° South 202 232 14,500 -600 Descending Miami Center
07:30PM 27.4481 -80.0864 162° South 215 247 13,900 -600 Descending Miami Center
07:31PM 27.3881 -80.0683 165° South 227 261 13,400 -600 Descending Miami Center
07:32PM 27.3217 -80.0500 166° South 227 261 12,800 -600 Descending Miami Center
07:33PM 27.2614 -80.0297 163° South 221 254 12,200 -360 Descending Miami Center
07:34PM 27.2033 -80.0142 167° South 221 254 12,100 -120 Descending Miami Center
07:35PM 27.1511 -80.0219 188° South 216 249 12,000 -300 Descending Miami Center
07:36PM 27.0886 -80.0156 175° South 216 249 11,500 -540 Descending Miami Center
07:37PM 27.0219 -80.0069 173° South 216 249 11,000 -540 Descending Miami Center
07:38PM 26.9614 -80.0006 175° South 216 249 10,500 -480 Descending Miami Center
07:39PM 26.9008 -79.9967 177° South 216 249 10,100 -540 Descending Miami Center
07:41PM 26.8915 -79.9002 96° East  Level FlightAware Approximate
07:44PM 26.6133 -79.9633 193° South 204 235 7,500  Level Miami Center
07:45PM 26.5300 -79.9542 174° South 205 236 6,400 -600 Descending Miami Center
07:46PM 26.4758 -79.9528 179° South 197 227 6,100 -300 Descending Miami Center
07:47PM 26.4236 -79.9539 181° South 185 213 5,800 -540 Descending Miami Center
07:48PM 26.5403 -79.9191 193° South  Level FlightAware Approximate
07:48PM 26.3728 -79.9872 210° Southwest 211 243 5,100  Level Miami Center
07:49PM 26.4875 -79.9323 193° South  Level FlightAware Approximate
07:49PM 26.3386 -80.0258 225° Southwest 191 220 4,000  Level Miami Center
07:50PM 26.3000 -80.0664 223° Southwest 192 221 2,800 -1,020 Descending Miami Center
07:51PM 26.2594 -80.1069 222° Southwest 180 207 2,000 -420 Descending Miami Center
07:52PM 26.2356 -80.1411 232° Southwest 139 160 2,000 -120 Level Miami Center
07:53PM 26.2244 -80.1803 252° West 149 171 1,800 -480 Descending Miami Center
07:54PM 26.2233 -80.2289 269° West 151 174 1,100 -600 Descending Miami Center
07:55PM 26.1919 -80.2233 171° South 117 135 600 -480 Descending Miami Center
07:57PM 26.1973 -80.1707 154° Southeast  Level Estimated
08:04PM 26.1973 -80.1707 195° South  Level Estimated
08:05PM 26.1973 -80.1707 North  Level Estimated
08:06PM 26.1973 -80.1707 176° South  Level Estimated
08:07PM 26.1973 -80.1707 176° South  Level Estimated
08:08PM 26.1973 -80.1707 176° South  Level Estimated
08:09PM 26.1973 -80.1707 North  Level Estimated
08:10PM 26.1973 -80.1707 347° North  Level Estimated